Latest Coastal Weather Observations for Hillarys Point Boat Harbour

IDW60701

Issued at 11:03 am WST Friday 30 September 2016 (issued every 10 minutes, with the page automatically refreshed every 10 minutes)

About coastal observations | Map of coastal stations | Coastal observations for WA | Marine services | Other Formats
Station Details ID: 009265 Name: HILLARYS BOAT HARBOUR NTC AWS Lat: -31.83 Lon: 115.74 Height: 0.0 m
Data from the previous 72 hours. | See also: Recent months for locations in Western Australia
Date/Time
WST
Temp
°C
Wind Pressure Rain since
9am
mm
Weather Cloud Vis
km
Sea
Height
m
Swell
Dir  Spd
kts
Gust
kts
hPa Trend Height
m
Period
s
Dir
30/11:00am 16.8 NW 10 19 1008.1 - - - - - - - - -
30/10:30am 16.5 NW 10 17 1008.4 - - - - - - - - -
30/10:00am 16.4 NW 10 17 1008.5 - - - - - - - - -
30/09:30am 16.3 NW 9 16 1008.5 - - - - - - - - -
30/09:00am 16.1 WNW 10 16 1008.5 - - - - - - - - -
30/08:30am 16.0 NW 8 14 1008.5 - - - - - - - - -
30/08:00am 15.7 NW 8 14 1008.7 - - - - - - - - -
30/07:30am 15.6 WNW 7 13 1008.6 - - - - - - - - -
30/07:00am 15.3 WNW 9 15 1008.6 - - - - - - - - -
30/06:30am 15.3 WNW 8 13 1008.5 - - - - - - - - -
30/06:00am 15.3 W 7 12 1008.6 - - - - - - - - -
30/05:30am 15.3 W 10 15 1008.6 - - - - - - - - -
30/05:00am 15.4 W 9 15 1009.1 - - - - - - - - -
30/04:30am 15.3 W 8 13 1009.1 - - - - - - - - -
30/04:00am 15.1 W 7 12 1009.4 - - - - - - - - -
30/03:30am 11.6 ENE 4 5 1009.8 - - - - - - - - -
30/03:00am 11.3 NE 3 5 1010.0 - - - - - - - - -
30/02:30am 10.8 NE 3 5 1010.2 - - - - - - - - -
30/02:00am 11.3 NE 3 5 1010.6 - - - - - - - - -
30/01:30am 11.3 NE 3 5 1010.6 - - - - - - - - -
30/01:00am 11.4 NE 3 4 1011.0 - - - - - - - - -
30/12:30am 11.4 NE 2 4 1011.3 - - - - - - - - -
30/12:00am 11.5 NE 2 4 1011.7 - - - - - - - - -
 
Date/Time
WST
Temp
°C
Wind Pressure Rain since
9am
mm
Weather Cloud Vis
km
Sea
Height
m
Swell
Dir  Spd
kts
Gust
kts
hPa Trend Height
m
Period
s
Dir
29/11:30pm 11.8 ENE 3 5 1012.1 - - - - - - - - -
29/11:00pm 11.9 ENE 3 5 1012.4 - - - - - - - - -
29/10:30pm 12.3 ENE 2 3 1012.9 - - - - - - - - -
29/10:00pm 13.3 ENE 2 5 1013.3 - - - - - - - - -
29/09:30pm 15.2 SSW 4 7 1013.7 - - - - - - - - -
29/09:00pm 15.3 SW 5 8 1014.2 - - - - - - - - -
29/08:30pm 15.1 SSW 3 7 1014.4 - - - - - - - - -
29/08:00pm 15.2 SSW 4 8 1014.5 - - - - - - - - -
29/07:30pm 15.1 SSW 4 8 1014.5 - - - - - - - - -
29/07:00pm 15.1 SW 5 9 1014.5 - - - - - - - - -
29/06:30pm 15.0 SW 7 11 1014.5 - - - - - - - - -
29/06:00pm 15.0 SW 7 10 1014.3 - - - - - - - - -
29/05:30pm 15.1 SW 8 11 1014.4 - - - - - - - - -
29/05:00pm 15.2 SW 7 10 1014.5 - - - - - - - - -
29/04:30pm 15.1 SW 8 11 1014.5 - - - - - - - - -
29/04:00pm 15.4 SW 6 9 1014.6 - - - - - - - - -
29/03:30pm 15.4 SW 5 9 1015.1 - - - - - - - - -
29/03:00pm 15.2 SW 6 9 1015.3 - - - - - - - - -
29/02:30pm 15.3 SW 8 12 1016.2 - - - - - - - - -
29/02:00pm 15.1 SW 7 11 1016.9 - - - - - - - - -
29/01:30pm 14.6 WSW 7 9 1017.3 - - - - - - - - -
29/01:00pm 14.7 SW 6 9 1017.8 - - - - - - - - -
29/12:30pm 14.5 WSW 4 7 1018.2 - - - - - - - - -
29/12:00pm 16.0 ENE 2 4 1018.8 - - - - - - - - -
29/11:30am 15.5 NW 2 7 1019.4 - - - - - - - - -
29/11:00am 14.7 NNE 5 9 1020.0 - - - - - - - - -
29/10:30am 14.6 ENE 4 8 1020.9 - - - - - - - - -
29/10:00am 13.7 NE 5 9 1021.5 - - - - - - - - -
29/09:30am 13.0 ENE 8 13 1021.3 - - - - - - - - -
29/09:00am 12.0 ENE 9 15 1021.2 - - - - - - - - -
29/08:30am 11.0 ENE 10 16 1021.2 - - - - - - - - -
29/08:00am 9.8 ENE 10 15 1021.2 - - - - - - - - -
29/07:30am 8.7 ENE 9 15 1021.1 - - - - - - - - -
29/07:00am 8.1 ENE 9 14 1021.6 - - - - - - - - -
29/06:30am 7.6 ENE 9 14 1021.1 - - - - - - - - -
29/06:00am 7.4 ENE 9 13 1021.3 - - - - - - - - -
29/05:30am 7.4 ENE 8 13 1021.4 - - - - - - - - -
29/05:00am 7.1 ENE 7 11 1021.2 - - - - - - - - -
29/04:30am 7.3 ENE 7 10 1021.1 - - - - - - - - -
29/04:00am 7.8 ENE 7 11 1021.0 - - - - - - - - -
29/03:30am 8.2 ENE 7 10 1021.0 - - - - - - - - -
29/03:00am 8.5 ENE 6 9 1020.9 - - - - - - - - -
29/02:30am 8.7 ENE 6 10 1021.2 - - - - - - - - -
29/02:00am 8.9 ENE 4 6 1021.4 - - - - - - - - -
29/01:30am 8.9 ENE 3 5 1021.8 - - - - - - - - -
29/01:00am 9.4 ENE 4 6 1022.0 - - - - - - - - -
29/12:30am 10.6 E 2 4 1022.1 - - - - - - - - -
29/12:00am 10.4 ENE 2 3 1022.4 - - - - - - - - -
 
Date/Time
WST
Temp
°C
Wind Pressure Rain since
9am
mm
Weather Cloud Vis
km
Sea
Height
m
Swell
Dir  Spd
kts
Gust
kts
hPa Trend Height
m
Period
s
Dir
28/11:30pm 10.9 E 2 3 1022.5 - - - - - - - - -
28/11:00pm 11.0 E 2 4 1022.4 - - - - - - - - -
28/10:30pm 11.3 E 1 5 1022.5 - - - - - - - - -
28/10:00pm 11.6 ESE 1 5 1022.7 - - - - - - - - -
28/09:30pm 11.7 E 1 3 1022.9 - - - - - - - - -
28/09:00pm 12.1 ESE 1 4 1023.0 - - - - - - - - -
28/08:30pm 13.0 SSE 6 10 1022.7 - - - - - - - - -
28/08:00pm 13.5 S 5 10 1022.6 - - - - - - - - -
28/07:30pm 13.6 S 4 10 1022.8 - - - - - - - - -
28/07:00pm 13.6 SSW 5 11 1022.7 - - - - - - - - -
28/06:30pm 13.5 SSW 5 9 1022.5 - - - - - - - - -
28/06:00pm 13.6 SSW 6 11 1022.3 - - - - - - - - -
28/05:30pm 13.8 SSW 6 11 1022.2 - - - - - - - - -
28/05:00pm 13.7 SSW 6 12 1022.0 - - - - - - - - -
28/04:30pm 13.5 SSW 7 12 1022.0 - - - - - - - - -
28/04:00pm 13.6 SSW 7 13 1022.1 - - - - - - - - -
28/03:30pm 13.7 SSW 7 13 1022.3 - - - - - - - - -
28/03:00pm 13.6 SSW 7 12 1022.1 - - - - - - - - -
28/02:30pm 13.4 SSW 7 13 1022.2 - - - - - - - - -
28/02:00pm 13.5 SSW 7 12 1022.4 - - - - - - - - -
28/01:30pm 13.3 SSW 6 13 1022.6 - - - - - - - - -
28/01:00pm 13.2 SSW 7 12 1022.9 - - - - - - - - -
28/12:30pm 13.2 SSW 6 11 1023.1 - - - - - - - - -
28/12:00pm 13.1 SSW 7 13 1023.3 - - - - - - - - -
28/11:30am 13.1 SSW 5 12 1023.5 - - - - - - - - -
28/11:00am 12.8 SSW 5 11 1023.7 - - - - - - - - -
28/10:30am 12.9 S 5 10 1023.8 - - - - - - - - -
28/10:00am 12.6 S 4 11 1023.7 - - - - - - - - -
28/09:30am 12.4 S 5 11 1023.7 - - - - - - - - -
28/09:00am 12.0 S 6 12 1023.6 - - - - - - - - -
28/08:30am 11.4 SSE 6 11 1023.4 - - - - - - - - -
28/08:00am 10.9 SSE 8 14 1023.0 - - - - - - - - -
28/07:30am 10.2 SSE 7 13 1022.5 - - - - - - - - -
28/07:00am 9.7 SSE 5 12 1022.0 - - - - - - - - -
28/06:30am 9.6 SE 5 10 1021.5 - - - - - - - - -
28/06:00am 9.6 SSE 4 9 1020.9 - - - - - - - - -
28/05:30am 9.5 SE 3 11 1020.2 - - - - - - - - -
28/05:00am 9.5 SE 2 7 1019.5 - - - - - - - - -
28/04:30am 10.0 SE 4 11 1019.1 - - - - - - - - -
28/04:00am 10.1 SSE 5 10 1018.8 - - - - - - - - -
28/03:30am 10.2 SSE 6 13 1018.5 - - - - - - - - -
28/03:00am 10.1 SE 3 8 1018.1 - - - - - - - - -
28/02:30am 10.2 SSE 7 13 1018.1 - - - - - - - - -
28/02:00am 11.0 S 8 17 1017.9 - - - - - - - - -
28/01:30am 11.8 S 8 21 1017.8 - - - - - - - - -
28/01:00am 12.3 SSW 13 23 1017.3 - - - - - - - - -
28/12:30am 12.5 SSW 14 25 1017.1 - - - - - - - - -
28/12:20am 12.3 SSW 15 25 1016.9 - - - - - - - - -
28/12:00am 13.2 SSW 13 24 1016.7 - - - - - - - - -
 
Date/Time
WST
Temp
°C
Wind Pressure Rain since
9am
mm
Weather Cloud Vis
km
Sea
Height
m
Swell
Dir  Spd
kts
Gust
kts
hPa Trend Height
m
Period
s
Dir
27/11:30pm 12.4 SW 11 17 1016.5 - - - - - - - - -
27/11:06pm 13.2 SW 15 26 1016.5 - - - - - - - - -
27/11:00pm 13.4 SW 15 22 1016.4 - - - - - - - - -
27/10:30pm 13.2 SW 16 27 1016.6 - - - - - - - - -
27/10:26pm 13.1 SW 16 27 1016.6 - - - - - - - - -
27/10:00pm 13.1 SW 18 27 1016.6 - - - - - - - - -
27/09:36pm 13.7 SW 17 27 1016.1 - - - - - - - - -
27/09:30pm 13.6 SW 15 25 1016.1 - - - - - - - - -
27/09:00pm 13.5 SW 19 29 1016.0 - - - - - - - - -
27/08:41pm 12.6 SW 18 29 1015.8 - - - - - - - - -
27/08:30pm 14.1 SW 18 26 1015.5 - - - - - - - - -
27/08:13pm 13.6 SW 18 28 1015.4 - - - - - - - - -
27/08:00pm 13.9 SW 18 25 1015.2 - - - - - - - - -
27/07:43pm 14.3 SW 21 31 1014.8 - - - - - - - - -
27/07:30pm 14.3 SW 19 28 1014.7 - - - - - - - - -
27/07:00pm 13.8 SW 17 28 1014.2 - - - - - - - - -
27/06:54pm 14.1 SW 18 28 1014.1 - - - - - - - - -
27/06:30pm 14.3 SW 18 27 1013.9 - - - - - - - - -
27/06:00pm 14.6 SW 17 27 1013.3 - - - - - - - - -
27/05:43pm 14.6 SW 18 28 1013.2 - - - - - - - - -
27/05:30pm 14.6 SW 20 29 1012.8 - - - - - - - - -
27/05:07pm 14.8 SW 19 29 1012.6 - - - - - - - - -
27/05:00pm 14.9 SW 19 29 1012.5 - - - - - - - - -
27/04:35pm 14.7 SW 19 29 1012.0 - - - - - - - - -
27/04:30pm 14.9 SW 19 29 1011.9 - - - - - - - - -
27/04:00pm 15.0 SW 21 31 1011.4 - - - - - - - - -
27/03:30pm 15.0 SW 19 28 1011.1 - - - - - - - - -
27/03:00pm 15.6 WSW 20 26 1010.7 - - - - - - - - -
27/02:30pm 15.3 SW 17 24 1010.7 - - - - - - - - -
27/02:00pm 14.0 SW 19 30 1010.9 - - - - - - - - -
27/01:39pm 13.5 WSW 22 33 1010.7 - - - - - - - - -
27/01:34pm 13.8 W 19 31 1010.7 - - - - - - - - -
27/01:30pm 14.7 W 16 27 1010.6 - - - - - - - - -
27/01:00pm 12.3 W 18 30 1011.2 - - - - - - - - -
27/12:53pm 12.6 W 16 37 1011.4 - - - - - - - - -
27/12:51pm 12.4 WNW 16 37 1011.3 - - - - - - - - -
27/12:50pm 13.0 WNW 15 37 1011.3 - - - - - - - - -
27/12:49pm 14.2 WNW 14 37 1011.3 - - - - - - - - -
27/12:30pm 16.1 WNW 15 26 1010.8 - - - - - - - - -
27/12:22pm 16.8 W 15 26 1010.9 - - - - - - - - -
27/12:00pm 17.3 W 15 24 1011.2 - - - - - - - - -
27/11:39am 17.4 W 15 25 1011.5 - - - - - - - - -
27/11:30am 17.3 W 14 21 1011.6 - - - - - - - - -

Other Formats:

Comma delimited format used in spreadsheet applications
http://www.bom.gov.au/fwo/IDW60701/IDW60701.95605.axf

JavaScript Object Notation format (JSON) in row-major order
http://www.bom.gov.au/fwo/IDW60701/IDW60701.95605.json